Time;durP1;ratioP1;P1;durP2;ratioP2;P2;SDS_P1;SDS_P2;PMS_P1;PMS_P2;Temp;Humidity;BMP_temperature;BMP_pressure;BME280_temperature;BME280_humidity;BME280_pressure;Samples;Min_cycle;Max_cycle;Signal;HPM_P1;HPM_P2
2021/07/17 00:01:09;;;;;;;31.90;25.85;;;;;;;;;;4954000;28;20043;-75
2021/07/17 00:03:36;;;;;;;29.75;25.55;;;;;;;;;;4955058;29;20035;-74
2021/07/17 00:06:02;;;;;;;26.73;23.73;;;;;;;;;;4951910;29;20477;-74
2021/07/17 00:08:29;;;;;;;32.47;25.08;;;;;;;;;;4954442;29;20077;-73
2021/07/17 00:10:57;;;;;;;33.90;26.05;;;;;;;;;;4954188;29;20034;-76
2021/07/17 00:13:23;;;;;;;34.17;27.58;;;;;;;;;;4949592;28;20028;-76
2021/07/17 00:15:52;;;;;;;33.95;28.23;;;;;;;;;;4942820;29;20486;-76
2021/07/17 00:18:19;;;;;;;40.28;29.85;;;;;;;;;;4954537;29;20485;-75
2021/07/17 00:20:48;;;;;;;43.08;34.28;;;;;;;;;;4954543;29;20032;-74
2021/07/17 00:23:17;;;;;;;47.72;37.30;;;;;;;;;;4953070;28;20515;-73
2021/07/17 00:25:44;;;;;;;45.72;40.13;;;;;;;;;;4948472;29;20458;-73
2021/07/17 00:28:11;;;;;;;42.20;37.72;;;;;;;;;;4951501;28;21828;-73
2021/07/17 00:30:37;;;;;;;41.88;37.03;;;;;;;;;;4954547;29;20058;-74
2021/07/17 00:33:03;;;;;;;41.13;36.03;;;;;;;;;;4953996;29;20035;-74
2021/07/17 00:35:30;;;;;;;42.42;36.47;;;;;;;;;;4955065;29;20061;-75
2021/07/17 00:37:56;;;;;;;48.33;38.17;;;;;;;;;;4953946;28;20078;-74
2021/07/17 00:40:22;;;;;;;48.72;41.78;;;;;;;;;;4954525;28;20027;-75
2021/07/17 00:42:49;;;;;;;59.33;43.58;;;;;;;;;;4954119;29;20023;-75
2021/07/17 00:45:15;;;;;;;71.00;52.17;;;;;;;;;;4954407;28;20031;-74
2021/07/17 00:47:42;;;;;;;77.85;54.22;;;;;;;;;;4949231;29;20042;-74
2021/07/17 00:50:09;;;;;;;75.60;51.97;;;;;;;;;;4955189;29;20431;-74
2021/07/17 00:52:35;;;;;;;76.57;52.35;;;;;;;;;;4951540;29;20038;-74
2021/07/17 00:55:02;;;;;;;65.88;50.30;;;;;;;;;;4953601;28;20422;-76
2021/07/17 00:57:30;;;;;;;57.90;45.85;;;;;;;;;;4953524;29;20035;-74
2021/07/17 00:59:57;;;;;;;56.45;45.67;;;;;;;;;;4954023;29;20425;-74
2021/07/17 01:02:24;;;;;;;57.03;44.15;;;;;;;;;;4951887;29;20478;-74
2021/07/17 01:04:52;;;;;;;48.38;40.67;;;;;;;;;;4954458;29;20062;-74
2021/07/17 01:07:18;;;;;;;50.70;39.28;;;;;;;;;;4954280;28;20027;-74
2021/07/17 01:09:44;;;;;;;48.85;40.00;;;;;;;;;;4953683;29;20023;-74
2021/07/17 01:12:10;;;;;;;47.47;39.35;;;;;;;;;;4954581;29;20042;-74
2021/07/17 01:14:40;;;;;;;47.10;38.03;;;;;;;;;;4953630;29;20023;-76
2021/07/17 01:17:06;;;;;;;42.53;35.50;;;;;;;;;;4946531;28;20027;-75
2021/07/17 01:19:32;;;;;;;42.53;35.28;;;;;;;;;;4951153;29;20019;-75
2021/07/17 01:21:58;;;;;;;40.88;35.38;;;;;;;;;;4953778;29;20038;-75
2021/07/17 01:24:24;;;;;;;48.30;37.85;;;;;;;;;;4952882;28;20055;-75
2021/07/17 01:26:52;;;;;;;49.05;40.60;;;;;;;;;;4946492;28;20043;-75
2021/07/17 01:29:18;;;;;;;43.67;35.97;;;;;;;;;;4953703;29;20390;-75
2021/07/17 01:31:44;;;;;;;41.45;36.80;;;;;;;;;;4953062;29;20099;-75
2021/07/17 01:34:13;;;;;;;42.38;36.05;;;;;;;;;;4953179;28;20535;-74
2021/07/17 01:36:40;;;;;;;37.30;31.08;;;;;;;;;;4953785;29;20037;-73
2021/07/17 01:39:06;;;;;;;37.25;30.92;;;;;;;;;;4946907;29;20027;-73
2021/07/17 01:41:33;;;;;;;40.00;33.60;;;;;;;;;;4953258;29;20023;-74
2021/07/17 01:43:59;;;;;;;37.05;31.15;;;;;;;;;;4952934;28;20038;-73
2021/07/17 01:46:27;;;;;;;40.08;33.15;;;;;;;;;;4952520;29;20020;-76
2021/07/17 01:48:57;;;;;;;33.83;29.02;;;;;;;;;;4952202;28;20027;-75
2021/07/17 01:51:23;;;;;;;36.72;29.08;;;;;;;;;;4952135;29;20098;-74
2021/07/17 01:53:51;;;;;;;33.65;28.20;;;;;;;;;;4952600;29;20027;-74
2021/07/17 01:56:17;;;;;;;33.67;28.08;;;;;;;;;;4953257;29;20078;-74
2021/07/17 01:58:43;;;;;;;28.20;25.17;;;;;;;;;;4952434;29;20403;-75
2021/07/17 02:01:10;;;;;;;30.33;23.65;;;;;;;;;;4951530;29;20093;-75
2021/07/17 02:03:39;;;;;;;28.40;25.30;;;;;;;;;;4956727;28;20544;-76
2021/07/17 02:06:05;;;;;;;29.00;25.02;;;;;;;;;;4954941;28;20038;-73
2021/07/17 02:08:32;;;;;;;29.48;25.80;;;;;;;;;;4953188;29;20031;-75
2021/07/17 02:10:58;;;;;;;28.25;25.20;;;;;;;;;;4952855;29;20034;-76
2021/07/17 02:13:24;;;;;;;29.52;23.98;;;;;;;;;;4935942;29;20478;-76
2021/07/17 02:15:52;;;;;;;23.45;20.98;;;;;;;;;;4955446;28;20030;-75
2021/07/17 02:18:31;;;;;;;25.95;21.10;;;;;;;;;;4952435;29;20038;-73
2021/07/17 02:20:58;;;;;;;24.63;20.88;;;;;;;;;;4953552;28;20038;-74
2021/07/17 02:23:24;;;;;;;26.55;20.80;;;;;;;;;;4952602;29;20050;-74
2021/07/17 02:25:52;;;;;;;26.25;21.98;;;;;;;;;;4949281;28;20024;-75
2021/07/17 02:28:20;;;;;;;22.27;19.88;;;;;;;;;;4950452;29;20610;-74
2021/07/17 02:30:46;;;;;;;24.20;20.33;;;;;;;;;;4953492;29;20027;-74
2021/07/17 02:33:13;;;;;;;23.17;20.75;;;;;;;;;;4952514;29;20027;-75
2021/07/17 02:35:39;;;;;;;23.45;20.90;;;;;;;;;;4951562;28;20477;-74
2021/07/17 02:38:05;;;;;;;21.98;19.65;;;;;;;;;;4952100;29;20035;-73
2021/07/17 02:40:31;;;;;;;24.05;20.55;;;;;;;;;;4951467;29;20043;-74
2021/07/17 02:42:57;;;;;;;24.30;20.15;;;;;;;;;;4952489;29;20462;-74
2021/07/17 02:45:23;;;;;;;23.42;18.77;;;;;;;;;;4951700;29;20114;-76
2021/07/17 02:47:49;;;;;;;20.48;17.92;;;;;;;;;;4950880;28;20090;-74
2021/07/17 02:50:16;;;;;;;20.08;16.88;;;;;;;;;;4952397;28;20042;-74
2021/07/17 02:52:42;;;;;;;19.73;16.73;;;;;;;;;;4949125;28;20042;-75
2021/07/17 02:55:08;;;;;;;20.58;16.55;;;;;;;;;;4952689;29;20035;-75
2021/07/17 02:57:37;;;;;;;19.13;16.38;;;;;;;;;;4956789;28;20046;-75
2021/07/17 03:00:04;;;;;;;20.38;16.65;;;;;;;;;;4952444;28;20023;-75
2021/07/17 03:02:31;;;;;;;18.52;16.63;;;;;;;;;;4957082;28;20110;-74
2021/07/17 03:04:57;;;;;;;18.20;16.15;;;;;;;;;;4956484;29;20367;-73
2021/07/17 03:07:23;;;;;;;16.10;13.32;;;;;;;;;;4956628;28;20031;-74
2021/07/17 03:09:49;;;;;;;15.30;13.63;;;;;;;;;;4955912;29;20027;-75
2021/07/17 03:12:15;;;;;;;18.08;14.57;;;;;;;;;;4956003;29;20027;-74
2021/07/17 03:14:41;;;;;;;14.55;13.05;;;;;;;;;;4955657;28;20106;-74
2021/07/17 03:17:07;;;;;;;17.27;13.77;;;;;;;;;;4956092;29;20516;-74
2021/07/17 03:19:33;;;;;;;21.75;14.55;;;;;;;;;;4954958;28;20023;-74
2021/07/17 03:21:59;;;;;;;15.57;13.75;;;;;;;;;;4956122;28;20027;-76
2021/07/17 03:24:25;;;;;;;14.70;13.07;;;;;;;;;;4955672;28;20047;-77
2021/07/17 03:26:51;;;;;;;17.50;13.88;;;;;;;;;;4955182;28;20031;-75
2021/07/17 03:29:17;;;;;;;15.25;13.65;;;;;;;;;;4956132;28;20082;-76
2021/07/17 03:31:44;;;;;;;16.52;13.77;;;;;;;;;;4955241;28;20110;-75
2021/07/17 03:34:10;;;;;;;18.00;14.95;;;;;;;;;;4956070;29;20050;-75
2021/07/17 03:36:36;;;;;;;19.73;13.23;;;;;;;;;;4955600;28;20078;-74
2021/07/17 03:39:02;;;;;;;16.40;14.70;;;;;;;;;;4947527;28;20816;-73
2021/07/17 03:41:28;;;;;;;17.90;14.35;;;;;;;;;;4952651;28;20055;-74
2021/07/17 03:43:55;;;;;;;16.73;13.77;;;;;;;;;;4953568;29;20035;-74
2021/07/17 03:46:21;;;;;;;15.40;13.85;;;;;;;;;;4955859;29;20023;-75
2021/07/17 03:48:47;;;;;;;17.27;14.57;;;;;;;;;;4955169;28;20156;-74
2021/07/17 03:51:13;;;;;;;16.33;14.57;;;;;;;;;;4953130;29;20031;-74
2021/07/17 03:53:39;;;;;;;17.05;15.25;;;;;;;;;;4951840;28;20031;-73
2021/07/17 03:56:05;;;;;;;21.13;15.02;;;;;;;;;;4954811;29;20437;-73
2021/07/17 03:58:33;;;;;;;20.48;15.35;;;;;;;;;;4955314;28;20042;-75
2021/07/17 04:01:00;;;;;;;17.45;15.02;;;;;;;;;;4936073;29;20171;-76
2021/07/17 04:03:26;;;;;;;15.73;13.82;;;;;;;;;;4955464;29;20031;-75
2021/07/17 04:05:52;;;;;;;18.40;15.02;;;;;;;;;;4955059;29;20370;-74
2021/07/17 04:08:37;;;;;;;14.77;13.13;;;;;;;;;;4955448;28;20038;-74
2021/07/17 04:11:03;;;;;;;19.65;14.70;;;;;;;;;;4943388;28;20026;-73
2021/07/17 04:13:29;;;;;;;21.38;15.68;;;;;;;;;;4953735;28;20047;-75
2021/07/17 04:16:01;;;;;;;18.35;14.95;;;;;;;;;;4954733;29;20023;-73
2021/07/17 04:18:27;;;;;;;20.80;14.63;;;;;;;;;;4937880;29;20035;-73
2021/07/17 04:20:53;;;;;;;17.35;14.65;;;;;;;;;;4955066;28;20077;-73
2021/07/17 04:23:19;;;;;;;20.25;14.82;;;;;;;;;;4953909;28;20050;-72
2021/07/17 04:25:45;;;;;;;15.52;11.90;;;;;;;;;;4951161;28;20023;-75
2021/07/17 04:28:11;;;;;;;14.32;11.05;;;;;;;;;;4962877;28;20111;-73
2021/07/17 04:30:37;;;;;;;18.00;12.68;;;;;;;;;;4954914;29;20035;-73
2021/07/17 04:33:09;;;;;;;18.45;16.02;;;;;;;;;;4951674;28;20058;-73
2021/07/17 04:35:40;;;;;;;20.60;14.57;;;;;;;;;;4935464;29;20473;-70
2021/07/17 04:38:11;;;;;;;20.85;13.65;;;;;;;;;;4954088;28;20026;-75
2021/07/17 04:40:37;;;;;;;19.25;15.15;;;;;;;;;;4948995;28;20123;-74
2021/07/17 04:43:05;;;;;;;19.60;14.35;;;;;;;;;;4946840;29;20068;-74
2021/07/17 04:45:31;;;;;;;19.23;14.43;;;;;;;;;;4956615;28;20027;-71
2021/07/17 04:47:57;;;;;;;17.15;14.10;;;;;;;;;;4952821;28;20034;-76
2021/07/17 04:50:23;;;;;;;18.50;14.93;;;;;;;;;;4952410;28;20027;-87
2021/07/17 04:52:49;;;;;;;19.73;15.63;;;;;;;;;;4952857;28;20039;-73
2021/07/17 04:55:16;;;;;;;22.92;17.35;;;;;;;;;;4952549;28;20084;-74
2021/07/17 04:57:43;;;;;;;27.63;20.15;;;;;;;;;;4953016;28;20038;-73
2021/07/17 05:00:09;;;;;;;22.80;17.05;;;;;;;;;;4954501;28;20488;-74
2021/07/17 05:02:47;;;;;;;26.45;19.98;;;;;;;;;;4950929;29;20035;-73
2021/07/17 05:05:15;;;;;;;26.55;18.75;;;;;;;;;;4954208;28;20117;-72
2021/07/17 05:07:41;;;;;;;22.73;19.80;;;;;;;;;;4954290;28;20031;-75
2021/07/17 05:10:25;;;;;;;24.20;19.67;;;;;;;;;;4948483;28;20102;-71
2021/07/17 05:12:52;;;;;;;21.45;18.85;;;;;;;;;;4951799;29;20087;-75
2021/07/17 05:15:18;;;;;;;27.92;20.33;;;;;;;;;;4954682;28;20023;-71
2021/07/17 05:17:45;;;;;;;20.35;18.02;;;;;;;;;;4954173;28;20050;-74
2021/07/17 05:20:14;;;;;;;22.10;17.83;;;;;;;;;;4929103;29;20044;-75
2021/07/17 05:22:42;;;;;;;21.75;18.15;;;;;;;;;;4952843;28;20038;-72
2021/07/17 05:25:09;;;;;;;23.10;16.58;;;;;;;;;;4953283;28;20043;-74
2021/07/17 05:27:35;;;;;;;19.30;16.85;;;;;;;;;;4953028;29;20059;-72
2021/07/17 05:30:02;;;;;;;20.50;16.05;;;;;;;;;;4953579;29;20027;-72
2021/07/17 05:32:28;;;;;;;19.60;15.90;;;;;;;;;;4953537;28;20135;-72
2021/07/17 05:34:54;;;;;;;17.27;14.32;;;;;;;;;;4944224;28;20427;-77
2021/07/17 05:37:22;;;;;;;18.17;13.68;;;;;;;;;;4952367;29;20085;-87
2021/07/17 05:39:48;;;;;;;18.67;14.38;;;;;;;;;;4937285;28;20058;-88
2021/07/17 05:42:14;;;;;;;19.52;14.70;;;;;;;;;;4947478;28;20082;-75
2021/07/17 05:44:40;;;;;;;15.30;12.85;;;;;;;;;;4953834;29;20031;-84
2021/07/17 05:47:06;;;;;;;17.90;13.52;;;;;;;;;;4951475;28;20027;-82
2021/07/17 05:49:34;;;;;;;15.27;12.63;;;;;;;;;;4953539;29;20053;-82
2021/07/17 05:52:01;;;;;;;16.58;13.77;;;;;;;;;;4952781;28;20027;-75
2021/07/17 05:54:27;;;;;;;17.08;11.35;;;;;;;;;;4952787;28;20141;-77
2021/07/17 05:57:12;;;;;;;14.52;11.20;;;;;;;;;;4952139;28;20027;-72
2021/07/17 05:59:38;;;;;;;14.68;11.65;;;;;;;;;;4928293;29;20397;-75
2021/07/17 06:02:04;;;;;;;14.48;11.57;;;;;;;;;;4949350;28;20039;-71
2021/07/17 06:04:33;;;;;;;13.55;11.30;;;;;;;;;;4952317;29;20025;-77
2021/07/17 06:06:59;;;;;;;14.65;11.93;;;;;;;;;;4951435;28;20037;-72
2021/07/17 06:09:28;;;;;;;19.10;10.80;;;;;;;;;;4951153;28;20031;-75
2021/07/17 06:11:54;;;;;;;15.25;9.60;;;;;;;;;;4952444;29;20042;-75
2021/07/17 06:14:20;;;;;;;13.00;10.15;;;;;;;;;;4954309;28;20058;-72
2021/07/17 06:16:47;;;;;;;14.05;10.15;;;;;;;;;;4951811;28;20046;-72
2021/07/17 06:19:13;;;;;;;14.45;10.70;;;;;;;;;;4952738;29;20027;-77
2021/07/17 06:21:40;;;;;;;15.65;10.25;;;;;;;;;;4929749;29;20046;-79
2021/07/17 06:24:06;;;;;;;17.52;10.00;;;;;;;;;;4947501;29;20050;-73
2021/07/17 06:26:32;;;;;;;14.20;10.10;;;;;;;;;;4934083;29;20050;-75
2021/07/17 06:28:58;;;;;;;14.38;9.85;;;;;;;;;;4950843;28;20027;-75
2021/07/17 06:31:24;;;;;;;14.05;10.30;;;;;;;;;;4953734;28;20031;-74
2021/07/17 06:33:50;;;;;;;15.07;10.57;;;;;;;;;;4952490;29;20118;-72
2021/07/17 06:36:20;;;;;;;17.65;10.63;;;;;;;;;;4952021;29;20043;-72
2021/07/17 06:38:47;;;;;;;15.30;11.52;;;;;;;;;;4952707;28;20070;-73
2021/07/17 06:41:39;;;;;;;15.18;11.70;;;;;;;;;;4949807;28;20086;-73
2021/07/17 06:44:05;;;;;;;14.90;11.55;;;;;;;;;;4874428;29;20041;-73
2021/07/17 06:46:31;;;;;;;16.83;11.70;;;;;;;;;;4876460;29;20028;-75
2021/07/17 06:48:57;;;;;;;13.27;11.10;;;;;;;;;;4874693;29;20036;-74
2021/07/17 06:51:23;;;;;;;13.75;11.80;;;;;;;;;;4875119;29;20050;-74
2021/07/17 07:16:30;;;;;;;14.98;12.25;;;;;;;;;;5058846;28;20395;-69
2021/07/17 07:18:56;;;;;;;15.52;11.73;;;;;;;;;;5046757;28;20025;-72
2021/07/17 07:21:22;;;;;;;16.20;11.75;;;;;;;;;;5054741;28;20346;-74
2021/07/17 07:24:01;;;;;;;20.08;11.60;;;;;;;;;;5047614;28;20032;-73
2021/07/17 07:26:27;;;;;;;19.88;12.05;;;;;;;;;;5043700;28;20108;-74
2021/07/17 07:28:56;;;;;;;16.58;11.98;;;;;;;;;;5047736;28;20029;-70
2021/07/17 07:31:23;;;;;;;16.45;12.40;;;;;;;;;;5047415;28;20056;-75
2021/07/17 07:36:57;;;;;;;22.48;13.00;;;;;;;;;;5049092;28;20043;-73
2021/07/17 07:39:25;;;;;;;17.55;12.02;;;;;;;;;;5046439;28;20025;-77
2021/07/17 07:41:51;;;;;;;15.23;11.80;;;;;;;;;;5050315;28;20021;-72
2021/07/17 07:44:17;;;;;;;14.43;11.65;;;;;;;;;;5048136;28;20060;-74
2021/07/17 07:46:43;;;;;;;17.63;12.15;;;;;;;;;;5047396;28;20475;-79
2021/07/17 07:49:09;;;;;;;19.65;12.43;;;;;;;;;;5047126;28;20433;-76
2021/07/17 07:51:35;;;;;;;16.70;12.45;;;;;;;;;;5053058;28;20029;-72
2021/07/17 07:54:02;;;;;;;23.60;12.52;;;;;;;;;;5049785;28;20068;-69
2021/07/17 07:56:28;;;;;;;13.82;11.77;;;;;;;;;;5051336;28;20115;-72
2021/07/17 07:58:56;;;;;;;14.32;11.18;;;;;;;;;;5051492;28;20115;-73
2021/07/17 08:01:22;;;;;;;16.17;11.48;;;;;;;;;;5049267;28;20044;-85
2021/07/17 08:03:48;;;;;;;17.67;12.07;;;;;;;;;;5047883;28;20039;-76
2021/07/17 08:06:15;;;;;;;15.90;11.55;;;;;;;;;;5045839;28;20421;-75
2021/07/17 08:08:41;;;;;;;16.52;11.60;;;;;;;;;;5034494;28;20487;-70
2021/07/17 08:11:07;;;;;;;15.07;12.38;;;;;;;;;;5036319;28;20434;-76
2021/07/17 08:13:35;;;;;;;20.83;12.18;;;;;;;;;;5033510;28;20014;-74
2021/07/17 08:16:02;;;;;;;16.35;11.65;;;;;;;;;;5034295;28;20056;-76
2021/07/17 08:18:29;;;;;;;15.93;11.80;;;;;;;;;;5042427;28;20099;-81
2021/07/17 08:20:56;;;;;;;14.38;11.38;;;;;;;;;;5040920;28;20536;-74
2021/07/17 08:23:22;;;;;;;14.77;11.68;;;;;;;;;;5036953;28;20367;-72
2021/07/17 08:25:48;;;;;;;15.23;11.95;;;;;;;;;;5038692;28;20447;-73
2021/07/17 08:28:15;;;;;;;15.10;11.40;;;;;;;;;;5034072;28;20025;-73
2021/07/17 08:30:41;;;;;;;16.40;11.82;;;;;;;;;;5034086;28;20566;-73
2021/07/17 08:33:08;;;;;;;20.92;10.60;;;;;;;;;;5034235;28;20040;-72
2021/07/17 08:35:35;;;;;;;14.90;12.27;;;;;;;;;;5034127;28;20029;-73
2021/07/17 08:38:01;;;;;;;13.55;11.57;;;;;;;;;;5049315;28;20056;-74
2021/07/17 08:40:27;;;;;;;16.75;11.60;;;;;;;;;;5029485;28;20033;-72
2021/07/17 08:42:55;;;;;;;12.82;11.13;;;;;;;;;;5034623;28;20025;-72
2021/07/17 08:45:22;;;;;;;17.98;11.57;;;;;;;;;;5027867;28;20348;-73
2021/07/17 08:47:50;;;;;;;16.55;11.10;;;;;;;;;;5036337;28;20068;-72
2021/07/17 08:50:21;;;;;;;18.30;12.38;;;;;;;;;;5034310;28;20095;-73
2021/07/17 08:52:51;;;;;;;16.65;11.75;;;;;;;;;;5031713;28;20746;-73
2021/07/17 08:55:17;;;;;;;16.05;11.93;;;;;;;;;;5039375;28;20065;-73
2021/07/17 08:57:43;;;;;;;13.90;10.82;;;;;;;;;;5032503;28;20028;-73
2021/07/17 09:00:11;;;;;;;16.05;10.80;;;;;;;;;;5039903;28;20061;-73
2021/07/17 09:02:38;;;;;;;16.92;10.70;;;;;;;;;;5036163;28;20013;-72
2021/07/17 09:05:06;;;;;;;13.52;11.05;;;;;;;;;;5033721;28;20030;-73
2021/07/17 09:07:32;;;;;;;16.85;11.10;;;;;;;;;;5034071;28;20029;-72
2021/07/17 09:09:58;;;;;;;21.48;11.20;;;;;;;;;;5032793;28;20027;-73
2021/07/17 09:12:26;;;;;;;15.70;11.45;;;;;;;;;;5034738;28;20022;-73
2021/07/17 09:14:52;;;;;;;14.80;10.48;;;;;;;;;;5034358;28;20057;-73
2021/07/17 09:17:25;;;;;;;15.23;11.50;;;;;;;;;;5034662;28;20530;-71
2021/07/17 09:19:58;;;;;;;14.18;11.18;;;;;;;;;;5032317;28;20386;-72
2021/07/17 09:22:38;;;;;;;15.13;11.02;;;;;;;;;;5035572;28;20055;-71
2021/07/17 09:25:06;;;;;;;14.43;10.40;;;;;;;;;;5030176;28;20083;-70
2021/07/17 09:27:32;;;;;;;13.68;10.90;;;;;;;;;;5034200;28;20514;-72
2021/07/17 09:29:58;;;;;;;16.67;11.18;;;;;;;;;;5033058;28;20044;-72
2021/07/17 09:32:24;;;;;;;13.98;10.93;;;;;;;;;;5030444;28;20163;-72
2021/07/17 09:34:50;;;;;;;16.02;11.13;;;;;;;;;;5043586;28;20025;-71
2021/07/17 09:37:21;;;;;;;15.43;11.07;;;;;;;;;;5032359;28;20108;-72
2021/07/17 09:39:52;;;;;;;12.45;10.05;;;;;;;;;;5031934;28;20104;-72
2021/07/17 09:42:20;;;;;;;14.93;11.35;;;;;;;;;;5030437;28;20133;-71
2021/07/17 09:44:49;;;;;;;11.40;9.95;;;;;;;;;;5042312;28;20029;-71
2021/07/17 09:47:16;;;;;;;14.93;10.95;;;;;;;;;;5034639;28;20064;-77
2021/07/17 09:49:42;;;;;;;15.23;10.05;;;;;;;;;;5039615;28;20474;-72
2021/07/17 09:52:12;;;;;;;13.40;9.98;;;;;;;;;;5030958;28;20033;-77
2021/07/17 09:54:39;;;;;;;12.40;10.20;;;;;;;;;;5028839;28;20132;-71
2021/07/17 09:57:05;;;;;;;13.15;10.07;;;;;;;;;;5033354;28;20033;-70
2021/07/17 09:59:31;;;;;;;14.70;10.38;;;;;;;;;;5038910;28;20578;-72
2021/07/17 10:01:57;;;;;;;15.38;10.30;;;;;;;;;;5036450;28;20026;-76
2021/07/17 10:04:23;;;;;;;12.00;9.68;;;;;;;;;;5031654;28;20395;-75
2021/07/17 10:06:59;;;;;;;10.75;9.65;;;;;;;;;;5039310;28;20025;-73
2021/07/17 10:09:25;;;;;;;12.60;9.45;;;;;;;;;;5033909;28;20040;-74
2021/07/17 10:11:53;;;;;;;13.93;8.73;;;;;;;;;;5032789;28;20021;-75
2021/07/17 10:14:26;;;;;;;14.43;9.00;;;;;;;;;;5038503;28;20064;-73
2021/07/17 10:16:57;;;;;;;34.38;22.25;;;;;;;;;;5031018;28;20048;-78
2021/07/17 10:19:24;;;;;;;14.80;9.38;;;;;;;;;;5035206;28;20075;-75
2021/07/17 10:21:51;;;;;;;19.20;9.90;;;;;;;;;;5028530;28;20032;-79
2021/07/17 10:24:18;;;;;;;12.88;9.57;;;;;;;;;;5024374;28;20171;-73
2021/07/17 10:26:45;;;;;;;14.60;10.55;;;;;;;;;;5029755;28;20036;-73
2021/07/17 10:29:12;;;;;;;13.40;9.90;;;;;;;;;;5031116;28;20029;-73
2021/07/17 10:31:39;;;;;;;13.85;9.73;;;;;;;;;;5035133;28;20044;-72
2021/07/17 10:34:06;;;;;;;13.40;9.93;;;;;;;;;;5037905;28;20029;-72
2021/07/17 10:36:34;;;;;;;11.75;9.30;;;;;;;;;;5029857;28;20056;-76
2021/07/17 10:39:03;;;;;;;13.23;10.52;;;;;;;;;;5033279;28;20101;-75
2021/07/17 10:41:55;;;;;;;14.05;9.82;;;;;;;;;;5032659;28;20017;-68
2021/07/17 10:44:41;;;;;;;13.52;9.82;;;;;;;;;;5026583;28;20060;-74
2021/07/17 10:47:08;;;;;;;14.65;10.05;;;;;;;;;;5038908;28;20025;-73
2021/07/17 10:49:39;;;;;;;14.30;10.02;;;;;;;;;;5038108;28;20021;-77
2021/07/17 10:52:09;;;;;;;18.45;10.65;;;;;;;;;;5032599;28;20025;-72
2021/07/17 10:54:36;;;;;;;14.77;10.23;;;;;;;;;;5035749;28;20048;-76
2021/07/17 10:57:03;;;;;;;18.85;10.10;;;;;;;;;;5040519;28;20117;-77
2021/07/17 10:59:29;;;;;;;11.00;9.50;;;;;;;;;;5037795;28;20021;-73
2021/07/17 11:01:59;;;;;;;13.63;9.52;;;;;;;;;;5035383;28;20018;-74
2021/07/17 11:04:47;;;;;;;17.05;11.05;;;;;;;;;;5026081;28;20044;-72
2021/07/17 11:07:19;;;;;;;14.27;9.35;;;;;;;;;;5029347;28;20101;-73
2021/07/17 11:09:49;;;;;;;14.03;9.10;;;;;;;;;;5030726;28;20026;-73
2021/07/17 11:12:19;;;;;;;11.57;8.98;;;;;;;;;;5031519;28;20542;-72
2021/07/17 11:14:45;;;;;;;11.18;8.70;;;;;;;;;;5031980;28;20523;-70
2021/07/17 11:17:11;;;;;;;15.80;9.27;;;;;;;;;;5029150;28;20115;-72
2021/07/17 11:19:37;;;;;;;12.35;8.50;;;;;;;;;;5031422;28;20079;-71
2021/07/17 11:22:14;;;;;;;14.52;9.25;;;;;;;;;;5033683;28;20037;-76
2021/07/17 11:24:41;;;;;;;12.27;9.23;;;;;;;;;;5035297;28;20075;-80
2021/07/17 11:27:11;;;;;;;13.13;9.20;;;;;;;;;;5032392;28;20430;-77
2021/07/17 11:29:39;;;;;;;12.95;9.18;;;;;;;;;;5036679;28;20096;-74
2021/07/17 11:32:09;;;;;;;11.57;8.60;;;;;;;;;;5030010;28;20075;-73
2021/07/17 11:34:35;;;;;;;13.77;9.45;;;;;;;;;;5032672;28;20365;-80
2021/07/17 11:37:06;;;;;;;11.52;8.73;;;;;;;;;;5027763;28;20121;-73
2021/07/17 11:39:33;;;;;;;14.15;9.18;;;;;;;;;;5031508;28;20066;-72
2021/07/17 11:42:00;;;;;;;14.43;9.02;;;;;;;;;;5034652;28;20079;-72
2021/07/17 11:44:55;;;;;;;13.20;8.88;;;;;;;;;;5034929;28;20046;-77
2021/07/17 11:47:22;;;;;;;14.18;8.57;;;;;;;;;;5028209;28;20076;-74
2021/07/17 11:49:50;;;;;;;12.18;8.30;;;;;;;;;;5037106;28;20022;-71
2021/07/17 11:52:18;;;;;;;11.50;8.30;;;;;;;;;;5030179;28;20033;-71
2021/07/17 11:54:46;;;;;;;14.18;7.75;;;;;;;;;;5034681;28;20072;-71
2021/07/17 11:57:18;;;;;;;11.35;8.10;;;;;;;;;;5027381;28;20041;-72
2021/07/17 11:59:46;;;;;;;11.10;8.40;;;;;;;;;;5025691;28;20026;-72
2021/07/17 12:02:14;;;;;;;9.90;8.70;;;;;;;;;;5029476;28;20034;-71
2021/07/17 12:04:41;;;;;;;12.23;9.23;;;;;;;;;;5021911;28;20038;-71
2021/07/17 12:07:11;;;;;;;12.20;8.25;;;;;;;;;;5029388;28;20076;-74
2021/07/17 12:09:41;;;;;;;9.88;8.10;;;;;;;;;;5031398;28;20033;-76
2021/07/17 12:12:16;;;;;;;18.30;8.52;;;;;;;;;;5031110;28;20021;-71
2021/07/17 12:14:43;;;;;;;12.25;8.45;;;;;;;;;;5030680;28;20148;-72
2021/07/17 12:17:09;;;;;;;13.32;8.38;;;;;;;;;;5033486;28;20030;-73
2021/07/17 12:19:40;;;;;;;17.15;9.98;;;;;;;;;;5022526;28;20117;-74
2021/07/17 12:22:07;;;;;;;13.65;8.50;;;;;;;;;;5030819;28;20495;-79
2021/07/17 12:24:37;;;;;;;14.13;8.40;;;;;;;;;;5040775;28;20045;-71
2021/07/17 12:27:11;;;;;;;10.77;8.25;;;;;;;;;;5030367;28;20474;-75
2021/07/17 12:29:37;;;;;;;15.15;8.65;;;;;;;;;;5035088;28;20528;-72
2021/07/17 12:32:04;;;;;;;14.85;8.43;;;;;;;;;;5031124;28;20046;-74
2021/07/17 12:34:30;;;;;;;14.07;8.90;;;;;;;;;;5037750;28;20032;-72
2021/07/17 12:37:01;;;;;;;14.93;8.77;;;;;;;;;;5032910;28;20053;-75
2021/07/17 12:39:27;;;;;;;11.50;8.95;;;;;;;;;;5037265;28;20017;-75
2021/07/17 12:42:00;;;;;;;15.30;8.70;;;;;;;;;;5034248;28;20087;-70
2021/07/17 12:44:26;;;;;;;12.30;8.43;;;;;;;;;;5039623;28;20117;-74
2021/07/17 12:46:57;;;;;;;14.40;8.60;;;;;;;;;;5033427;28;20026;-78
2021/07/17 12:49:23;;;;;;;12.98;8.43;;;;;;;;;;5036981;28;20072;-81
2021/07/17 12:51:50;;;;;;;12.82;8.68;;;;;;;;;;5034363;28;20033;-74
2021/07/17 12:54:29;;;;;;;11.77;8.00;;;;;;;;;;5040961;28;20017;-71
2021/07/17 12:56:56;;;;;;;10.93;8.68;;;;;;;;;;5037666;28;20039;-70
2021/07/17 12:59:43;;;;;;;13.35;8.27;;;;;;;;;;5035512;28;20017;-73
2021/07/17 13:02:15;;;;;;;11.52;8.30;;;;;;;;;;5033517;28;20502;-78
2021/07/17 13:04:45;;;;;;;14.65;8.95;;;;;;;;;;5030463;28;20037;-71
2021/07/17 13:07:12;;;;;;;13.25;7.95;;;;;;;;;;5032751;28;20108;-72
2021/07/17 13:09:39;;;;;;;12.65;8.45;;;;;;;;;;5032777;28;20029;-72
2021/07/17 13:12:09;;;;;;;11.65;8.43;;;;;;;;;;5035563;28;20037;-70
2021/07/17 13:14:37;;;;;;;13.52;8.38;;;;;;;;;;5039059;28;20056;-78
2021/07/17 13:17:12;;;;;;;12.52;8.60;;;;;;;;;;5034389;28;20034;-75
2021/07/17 13:19:38;;;;;;;12.52;8.82;;;;;;;;;;5034003;28;20044;-79
2021/07/17 13:22:05;;;;;;;10.73;8.50;;;;;;;;;;5035907;28;20056;-70
2021/07/17 13:24:47;;;;;;;11.50;8.45;;;;;;;;;;5036470;28;20037;-71
2021/07/17 13:27:18;;;;;;;12.95;9.27;;;;;;;;;;5031337;28;20027;-72
2021/07/17 13:29:48;;;;;;;14.32;10.65;;;;;;;;;;5039019;28;20108;-71
2021/07/17 13:32:15;;;;;;;16.02;11.98;;;;;;;;;;5036456;28;20020;-73
2021/07/17 13:34:44;;;;;;;16.08;10.38;;;;;;;;;;5038150;28;20028;-71
2021/07/17 13:37:11;;;;;;;16.90;9.52;;;;;;;;;;5036353;28;20030;-79
2021/07/17 13:39:52;;;;;;;17.55;9.52;;;;;;;;;;5035534;28;20051;-75
2021/07/17 13:42:25;;;;;;;17.90;10.15;;;;;;;;;;5036576;28;20100;-71
2021/07/17 13:44:51;;;;;;;;;;;;;;;;;;5038750;28;20499;-74
2021/07/17 13:47:18;;;;;;;14.90;10.63;;;;;;;;;;5031520;28;19952;-72
2021/07/17 13:49:48;;;;;;;20.63;11.13;;;;;;;;;;5032339;28;20037;-76
2021/07/17 13:52:31;;;;;;;12.77;11.48;;;;;;;;;;5031855;28;20075;-70
2021/07/17 13:54:57;;;;;;;13.68;11.20;;;;;;;;;;5023987;28;20037;-70
2021/07/17 13:57:32;;;;;;;14.15;11.60;;;;;;;;;;5029964;28;20084;-69
2021/07/17 14:00:01;;;;;;;14.32;9.80;;;;;;;;;;5033085;28;20061;-68
2021/07/17 14:05:07;;;;;;;16.85;10.85;;;;;;;;;;5399137;23;20084;-70
2021/07/17 14:07:33;;;;;;;15.25;11.02;;;;;;;;;;4972706;28;20039;-71
2021/07/17 14:09:59;;;;;;;13.88;11.20;;;;;;;;;;4957656;28;20183;-69
2021/07/17 14:12:28;;;;;;;13.45;10.55;;;;;;;;;;4973183;28;20031;-69
2021/07/17 14:14:55;;;;;;;20.38;10.32;;;;;;;;;;4969498;28;20151;-70
2021/07/17 14:17:21;;;;;;;19.85;12.40;;;;;;;;;;4967537;28;20023;-70
2021/07/17 14:19:49;;;;;;;18.67;12.68;;;;;;;;;;4970330;28;20058;-68
2021/07/17 14:22:15;;;;;;;13.15;11.35;;;;;;;;;;4960771;28;20042;-70
2021/07/17 14:24:45;;;;;;;14.98;10.95;;;;;;;;;;4972421;28;20056;-69
2021/07/17 14:27:11;;;;;;;13.63;11.13;;;;;;;;;;4971971;28;20023;-71
2021/07/17 14:29:37;;;;;;;12.00;9.60;;;;;;;;;;4972610;28;20034;-68
2021/07/17 14:32:04;;;;;;;12.32;8.95;;;;;;;;;;4972968;28;20033;-68
2021/07/17 14:34:30;;;;;;;11.15;9.30;;;;;;;;;;4971323;28;20039;-69
2021/07/17 14:36:56;;;;;;;13.45;10.05;;;;;;;;;;4971947;28;20162;-68
2021/07/17 14:39:22;;;;;;;12.63;9.57;;;;;;;;;;4972035;28;20019;-68
2021/07/17 14:41:48;;;;;;;13.38;10.30;;;;;;;;;;4973141;28;20031;-70
2021/07/17 14:44:14;;;;;;;13.45;10.07;;;;;;;;;;4970979;28;20038;-67
2021/07/17 14:46:41;;;;;;;12.55;10.00;;;;;;;;;;4970164;28;20035;-68
2021/07/17 14:49:07;;;;;;;13.77;9.25;;;;;;;;;;4972603;28;20367;-67
2021/07/17 14:51:33;;;;;;;12.05;8.95;;;;;;;;;;4971333;28;20062;-70
2021/07/17 14:53:59;;;;;;;12.05;9.43;;;;;;;;;;4971781;28;20476;-70